Saint Agatha, Maine
Current Conditions -  °F | °C
As of 5:53 AM on Thursday 27 Nov 2014 (Local Time) from KFVE Reporting Station
Light Snow Light Snow  
Wind Chill: -14°   Ceiling: 1200
Heat Index: -6°   Visibility: 1mi
Dew Point: -7°   Wind: 16mph
Humidity: 92%   Direction: 350°N
Pressure: 29.81"   Gusts: NA
Location:  47.24°N, 68.31°W
Report Text: KFVE 271053Z AUTO 35014KT 1SM -SN BR VV012 M06/M07 A2981 RMK AO2 SLP107 P0000 T10611072
Loading
Personal Weather Stations






























Interactive Weather Map New forecast layout! Learn more

10-Day Weather Forecast

Advertisements
Track Severe Weather on mobile